createdAt,value
2023-03-19T00:00:52.752Z,90.1
2023-03-19T00:01:55.770Z,90
2023-03-19T00:02:59.634Z,89.9
2023-03-19T00:04:03.835Z,89.7
2023-03-19T00:05:07.609Z,89.7
2023-03-19T00:06:11.201Z,89.7
2023-03-19T00:07:13.981Z,89.5
2023-03-19T00:08:16.807Z,89.3
2023-03-19T00:09:20.346Z,89
2023-03-19T00:10:23.183Z,88.7
2023-03-19T00:11:26.337Z,88.4
2023-03-19T00:12:29.499Z,88.4
2023-03-19T00:13:32.640Z,88.4
2023-03-19T00:14:35.787Z,88.7
2023-03-19T00:15:38.984Z,88.4
2023-03-19T00:16:42.972Z,88
2023-03-19T00:17:46.425Z,87.3
2023-03-19T00:18:49.849Z,87
2023-03-19T00:19:52.985Z,87.1
2023-03-19T00:20:56.360Z,87.5
2023-03-19T00:22:00.335Z,87.9
2023-03-19T00:23:03.815Z,88.4
2023-03-19T00:24:07.627Z,88.7
2023-03-19T00:25:10.951Z,89
2023-03-19T00:26:14.226Z,88.6
2023-03-19T00:27:17.652Z,88.3
2023-03-19T00:28:20.835Z,88.3
2023-03-19T00:29:23.927Z,88.3
2023-03-19T00:30:26.629Z,88.3
2023-03-19T00:31:30.174Z,88.4
2023-03-19T00:32:33.760Z,88.2
2023-03-19T00:33:36.785Z,88.4
2023-03-19T00:34:40.180Z,88.3
2023-03-19T00:35:43.719Z,88.5
2023-03-19T00:36:47.158Z,88.8
2023-03-19T00:37:50.718Z,89.1
2023-03-19T00:38:53.441Z,89.2
2023-03-19T00:39:57.210Z,89.4
2023-03-19T00:40:59.958Z,89.1
2023-03-19T00:42:03.344Z,89.1
2023-03-19T00:43:05.518Z,89.3
2023-03-19T00:44:08.089Z,89.5
2023-03-19T00:45:10.957Z,89.5
2023-03-19T00:46:14.370Z,89.4
2023-03-19T00:47:17.918Z,89.1
2023-03-19T00:48:20.757Z,88.8
2023-03-19T00:49:24.158Z,88.4
2023-03-19T00:50:27.256Z,88.4
2023-03-19T00:51:30.264Z,88.5
2023-03-19T00:52:33.688Z,88.4
2023-03-19T00:53:37.839Z,88.1
2023-03-19T00:54:40.933Z,88
2023-03-19T00:55:44.095Z,88.1
2023-03-19T00:56:46.919Z,88.2
2023-03-19T00:57:50.063Z,88.1
2023-03-19T00:58:53.076Z,87.8
2023-03-19T00:59:56.727Z,87.5
2023-03-19T01:01:00.254Z,87.1
2023-03-19T01:02:04.079Z,87.1
2023-03-19T01:03:07.551Z,87
2023-03-19T01:04:11.047Z,87.2
2023-03-19T01:05:14.546Z,87.2
2023-03-19T01:06:17.265Z,87.6
2023-03-19T01:07:20.278Z,87.5
2023-03-19T01:08:23.350Z,87.3
2023-03-19T01:09:27.258Z,88
2023-03-19T01:10:31.007Z,87.9
2023-03-19T01:11:34.012Z,87.4
2023-03-19T01:12:37.387Z,87.4
2023-03-19T01:13:40.384Z,87.7
2023-03-19T01:14:43.365Z,88.2
2023-03-19T01:15:46.831Z,88.5
2023-03-19T01:16:50.551Z,88.5
2023-03-19T01:17:53.552Z,89.3
2023-03-19T01:18:56.603Z,89.5
2023-03-19T01:19:59.472Z,89.6
2023-03-19T01:21:02.513Z,89.8
2023-03-19T01:22:06.249Z,89.9
2023-03-19T01:23:08.696Z,90
2023-03-19T01:24:11.813Z,90.1
2023-03-19T01:25:15.375Z,90.3
2023-03-19T01:26:18.458Z,90.2
2023-03-19T01:27:21.295Z,90.2
2023-03-19T01:28:24.016Z,90.2
2023-03-19T01:29:27.397Z,90.3
2023-03-19T01:30:30.546Z,90.4
2023-03-19T01:31:35.030Z,90.6
2023-03-19T01:32:38.759Z,90.8
2023-03-19T01:33:42.261Z,90.9
2023-03-19T01:34:45.362Z,90.9
2023-03-19T01:35:48.869Z,91
2023-03-19T01:36:52.517Z,91.2
2023-03-19T01:37:55.584Z,91.7
2023-03-19T01:38:59.041Z,92.6
2023-03-19T01:40:02.789Z,93.2
2023-03-19T01:41:07.109Z,93.9
2023-03-19T01:42:10.030Z,94.4
2023-03-19T01:43:13.035Z,94.4
2023-03-19T01:44:15.800Z,94.2
2023-03-19T01:45:19.220Z,94.5
2023-03-19T01:46:22.580Z,94.8
2023-03-19T01:47:25.472Z,94.9
2023-03-19T01:48:28.680Z,94.9
2023-03-19T01:49:32.024Z,94.9
2023-03-19T01:50:35.942Z,94.8
2023-03-19T01:51:38.985Z,94.9
2023-03-19T01:52:42.411Z,94.8
2023-03-19T01:53:45.581Z,94.8
2023-03-19T01:54:48.749Z,94.7
2023-03-19T01:55:52.045Z,94.6
2023-03-19T01:56:55.813Z,94.5
2023-03-19T01:57:58.817Z,94.5
2023-03-19T01:59:01.883Z,94.6
2023-03-19T02:00:04.701Z,94.6
2023-03-19T02:01:07.600Z,94.6
2023-03-19T02:02:10.701Z,94.6
2023-03-19T02:03:12.946Z,94.5
2023-03-19T02:04:15.985Z,94.4
2023-03-19T02:05:19.566Z,94.3
2023-03-19T02:06:22.654Z,94.2
2023-03-19T02:07:26.014Z,94.1
2023-03-19T02:08:29.230Z,94.1
2023-03-19T02:09:32.565Z,94
2023-03-19T02:10:36.696Z,94.1
2023-03-19T02:11:40.082Z,94.2
2023-03-19T02:12:43.924Z,94.2
2023-03-19T02:13:47.383Z,94.2
2023-03-19T02:14:50.592Z,94
2023-03-19T02:15:53.865Z,94.3
2023-03-19T02:16:57.776Z,94.2
2023-03-19T02:18:00.603Z,94.2
2023-03-19T02:19:03.694Z,94.2
2023-03-19T02:20:07.347Z,94.4
2023-03-19T02:21:10.132Z,94.6
2023-03-19T02:22:13.163Z,94.5
2023-03-19T02:23:15.426Z,94.6
2023-03-19T02:24:18.548Z,94.7
2023-03-19T02:25:21.364Z,94.6
2023-03-19T02:26:23.899Z,94.7
2023-03-19T02:27:27.982Z,94.8
2023-03-19T02:28:31.885Z,94.8
2023-03-19T02:29:35.349Z,94.8
2023-03-19T02:30:37.772Z,94.9
2023-03-19T02:31:40.906Z,94.8
2023-03-19T02:32:44.609Z,94.7
2023-03-19T02:33:47.420Z,94.6
2023-03-19T02:34:50.138Z,94.7
2023-03-19T02:35:53.427Z,94.8
2023-03-19T02:36:56.568Z,94.9
2023-03-19T02:37:59.721Z,94.9
2023-03-19T02:39:02.886Z,94.7
2023-03-19T02:40:05.757Z,94.6
2023-03-19T02:41:07.990Z,94.6
2023-03-19T02:42:11.414Z,94.6
2023-03-19T02:43:14.867Z,94.5
2023-03-19T02:44:18.813Z,94.7
2023-03-19T02:45:21.534Z,94.7
2023-03-19T02:46:25.922Z,94.7
2023-03-19T02:47:29.178Z,94.5
2023-03-19T02:48:32.379Z,94.8
2023-03-19T02:49:35.174Z,95.1
2023-03-19T02:50:37.624Z,95.1
2023-03-19T02:51:40.775Z,94.9
2023-03-19T02:52:43.904Z,94.9
2023-03-19T02:53:47.428Z,95
2023-03-19T02:54:50.479Z,95.1
2023-03-19T02:55:53.651Z,95.2
2023-03-19T02:56:56.165Z,95.2
2023-03-19T02:57:59.810Z,95.2
2023-03-19T02:59:03.310Z,95.3
2023-03-19T03:00:06.908Z,95.2
2023-03-19T03:01:10.506Z,95
2023-03-19T03:02:14.019Z,95
2023-03-19T03:03:17.258Z,95
2023-03-19T03:04:20.545Z,95
2023-03-19T03:05:24.332Z,95.1
2023-03-19T03:06:28.133Z,94.8
2023-03-19T03:07:30.856Z,94.9
2023-03-19T03:08:33.091Z,94.9
2023-03-19T03:09:35.832Z,94.9
2023-03-19T03:10:39.206Z,94.9
2023-03-19T03:11:42.885Z,94.8
2023-03-19T03:12:45.779Z,95.1
2023-03-19T03:13:49.024Z,94.9
2023-03-19T03:14:52.404Z,95.2
2023-03-19T03:15:56.328Z,95.2
2023-03-19T03:16:59.777Z,95.1
2023-03-19T03:18:02.855Z,95.9
2023-03-19T03:19:06.311Z,95.8
2023-03-19T03:20:08.744Z,95.8
2023-03-19T03:21:11.534Z,96.2
2023-03-19T03:22:14.559Z,96.2
2023-03-19T03:23:17.701Z,96.1
2023-03-19T03:24:20.144Z,96.1
2023-03-19T03:25:23.247Z,96.3
2023-03-19T03:26:26.578Z,96.2
2023-03-19T03:27:29.316Z,96.1
2023-03-19T03:28:32.950Z,96.3
2023-03-19T03:29:35.759Z,96.3
2023-03-19T03:30:39.212Z,96.3
2023-03-19T03:31:43.543Z,96.3
2023-03-19T03:32:46.872Z,96.2
2023-03-19T03:33:50.496Z,96
2023-03-19T03:34:53.672Z,96.1
2023-03-19T03:35:56.698Z,95.9
2023-03-19T03:36:59.893Z,95.9
2023-03-19T03:38:02.624Z,96.1
2023-03-19T03:39:06.021Z,96
2023-03-19T03:40:08.873Z,96.4
2023-03-19T03:41:12.091Z,96.4
2023-03-19T03:42:14.936Z,96.5
2023-03-19T03:43:17.947Z,96.7
2023-03-19T03:44:21.156Z,97
2023-03-19T03:45:24.311Z,97.1
2023-03-19T03:46:28.057Z,97.2
2023-03-19T03:47:31.943Z,97.3
2023-03-19T03:48:34.964Z,97.2
2023-03-19T03:49:38.322Z,97
2023-03-19T03:50:41.390Z,97
2023-03-19T03:51:44.828Z,96.8
2023-03-19T03:52:47.672Z,96.7
2023-03-19T03:53:50.416Z,97
2023-03-19T03:54:53.688Z,96.9
2023-03-19T03:55:56.976Z,97
2023-03-19T03:57:04.667Z,97.1
2023-03-19T03:58:07.818Z,97.1
2023-03-19T03:59:10.947Z,97
2023-03-19T04:00:14.073Z,97
2023-03-19T04:01:17.606Z,97.1
2023-03-19T04:02:21.720Z,97.1
2023-03-19T04:03:26.388Z,97
2023-03-19T04:04:29.904Z,97.2
2023-03-19T04:05:33.338Z,97.3
2023-03-19T04:06:36.610Z,97.1
2023-03-19T04:07:39.620Z,97.3
2023-03-19T04:08:42.348Z,97.3
2023-03-19T04:09:44.857Z,97.3
2023-03-19T04:10:48.215Z,97.2
2023-03-19T04:11:52.795Z,97.2
2023-03-19T04:12:56.290Z,97.3
2023-03-19T04:14:00.021Z,97.7
2023-03-19T04:15:03.085Z,97.6
2023-03-19T04:16:06.102Z,97.4
2023-03-19T04:17:09.189Z,97.3
2023-03-19T04:18:12.934Z,97.1
2023-03-19T04:19:16.842Z,97.1
2023-03-19T04:20:19.658Z,97.2
2023-03-19T04:21:22.957Z,97.3
2023-03-19T04:22:26.646Z,97.1
2023-03-19T04:23:30.073Z,97
2023-03-19T04:24:33.524Z,97.2
2023-03-19T04:25:36.236Z,97.5
2023-03-19T04:26:39.339Z,97.5
2023-03-19T04:27:42.399Z,97.8
2023-03-19T04:28:45.761Z,97.6
2023-03-19T04:29:49.298Z,97.5
2023-03-19T04:30:52.880Z,97.4
2023-03-19T04:31:55.723Z,97.3
2023-03-19T04:32:59.088Z,97.6
2023-03-19T04:34:02.100Z,97.6
2023-03-19T04:35:05.983Z,97.8
2023-03-19T04:36:08.744Z,97.9
2023-03-19T04:37:11.562Z,98.3
2023-03-19T04:38:14.713Z,98.4
2023-03-19T04:39:18.068Z,98.3
2023-03-19T04:40:21.782Z,98.5
2023-03-19T04:41:25.122Z,98.3
2023-03-19T04:42:28.548Z,98.1
2023-03-19T04:43:31.634Z,98.1
2023-03-19T04:44:34.530Z,98
2023-03-19T04:45:37.524Z,97.9
2023-03-19T04:46:40.598Z,98
2023-03-19T04:47:43.748Z,98
2023-03-19T04:48:47.180Z,98.1
2023-03-19T04:49:50.825Z,98
2023-03-19T04:50:54.841Z,97.9
2023-03-19T04:51:57.682Z,97.8
2023-03-19T04:53:00.391Z,97.7
2023-03-19T04:54:03.736Z,97.6
2023-03-19T04:55:07.096Z,97.5
2023-03-19T04:56:10.489Z,97.7
2023-03-19T04:57:13.834Z,97.8
2023-03-19T04:58:17.296Z,97.8
2023-03-19T04:59:24.233Z,97.7
2023-03-19T05:00:27.076Z,97.7
2023-03-19T05:01:30.257Z,97.8
2023-03-19T05:02:33.772Z,97.9
2023-03-19T05:03:36.083Z,97.8
2023-03-19T05:04:39.594Z,97.7
2023-03-19T05:05:43.044Z,97.5
2023-03-19T05:06:46.850Z,97.6
2023-03-19T05:07:49.969Z,98.1
2023-03-19T05:08:53.318Z,98.5
2023-03-19T05:09:56.417Z,98.4
2023-03-19T05:10:59.420Z,98.2
2023-03-19T05:12:02.607Z,98.3
2023-03-19T05:13:05.330Z,98.3
2023-03-19T05:14:08.152Z,98.2
2023-03-19T05:15:11.216Z,98.3
2023-03-19T05:16:14.532Z,98.3
2023-03-19T05:17:17.208Z,98.5
2023-03-19T05:18:20.055Z,98.9
2023-03-19T05:19:23.163Z,99
2023-03-19T05:20:26.808Z,98.9
2023-03-19T05:21:30.460Z,98.8
2023-03-19T05:22:34.309Z,98.6
2023-03-19T05:23:37.179Z,99.1
2023-03-19T05:24:40.539Z,99
2023-03-19T05:25:43.662Z,98.8
2023-03-19T05:26:47.162Z,98.5
2023-03-19T05:27:49.966Z,98.5
2023-03-19T05:28:53.333Z,98.4
2023-03-19T05:29:56.749Z,98.4
2023-03-19T05:31:00.309Z,98.6
2023-03-19T05:32:03.697Z,98.7
2023-03-19T05:33:06.872Z,98.7
2023-03-19T05:34:09.994Z,98.7
2023-03-19T05:35:13.627Z,98.7
2023-03-19T05:36:16.698Z,99
2023-03-19T05:37:20.149Z,99.4
2023-03-19T05:38:24.313Z,99.3
2023-03-19T05:39:27.337Z,98.9
2023-03-19T05:40:30.733Z,98.8
2023-03-19T05:41:34.136Z,98.7
2023-03-19T05:42:36.645Z,98.4
2023-03-19T05:43:39.596Z,98.3
2023-03-19T05:44:42.677Z,98.2
2023-03-19T05:45:45.135Z,98.2
2023-03-19T05:46:48.225Z,98.1
2023-03-19T05:47:51.240Z,98.3
2023-03-19T05:48:54.045Z,98.4
2023-03-19T05:49:57.630Z,98.5
2023-03-19T05:51:01.126Z,98.4
2023-03-19T05:52:03.596Z,98.3
2023-03-19T05:53:06.758Z,98.1
2023-03-19T05:54:10.304Z,98.4
2023-03-19T05:55:12.813Z,98.6
2023-03-19T05:56:15.889Z,99
2023-03-19T05:57:19.535Z,99.1
2023-03-19T05:58:22.541Z,98.9
2023-03-19T05:59:26.194Z,98.9
2023-03-19T06:00:29.222Z,99
2023-03-19T06:01:32.523Z,99.2
2023-03-19T06:02:37.038Z,99.3
2023-03-19T06:03:40.379Z,99.5
2023-03-19T06:04:43.678Z,99.8
2023-03-19T06:05:46.560Z,99.6
2023-03-19T06:06:50.559Z,99.5
2023-03-19T06:07:53.395Z,99.5
2023-03-19T06:08:57.132Z,99.7
2023-03-19T06:10:00.956Z,99.7
2023-03-19T06:11:04.682Z,100
2023-03-19T06:12:07.949Z,99.8
2023-03-19T06:13:10.543Z,99.4
2023-03-19T06:14:13.481Z,99.2
2023-03-19T06:15:16.230Z,98.9
2023-03-19T06:16:20.088Z,98.8
2023-03-19T06:17:23.966Z,98.9
2023-03-19T06:18:27.367Z,99.1
2023-03-19T06:19:30.172Z,99.2
2023-03-19T06:20:34.401Z,98.9
2023-03-19T06:21:39.089Z,98.7
2023-03-19T06:22:42.210Z,98.6
2023-03-19T06:23:45.280Z,98.6
2023-03-19T06:24:48.454Z,98.8
2023-03-19T06:25:52.669Z,98.6
2023-03-19T06:26:55.736Z,98.3
2023-03-19T06:27:58.734Z,98.2
2023-03-19T06:29:01.595Z,97.9
2023-03-19T06:30:04.713Z,97.6
2023-03-19T06:31:08.111Z,97.4
2023-03-19T06:32:11.329Z,97.2
2023-03-19T06:33:13.558Z,97.1
2023-03-19T06:34:16.918Z,97.1
2023-03-19T06:35:20.409Z,97.1
2023-03-19T06:36:23.240Z,97.1
2023-03-19T06:37:26.590Z,96.9
2023-03-19T06:38:29.476Z,96.8
2023-03-19T06:39:32.820Z,96.7
2023-03-19T06:40:37.030Z,96.8
2023-03-19T06:41:40.328Z,96.8
2023-03-19T06:42:43.020Z,96.5
2023-03-19T06:43:46.316Z,96.3
2023-03-19T06:44:50.713Z,96.2
2023-03-19T06:45:56.448Z,96.1
2023-03-19T06:46:59.615Z,96.1
2023-03-19T06:48:03.012Z,96.1
2023-03-19T06:49:05.773Z,95.9
2023-03-19T06:50:08.769Z,95.8
2023-03-19T06:51:12.133Z,95.7
2023-03-19T06:52:15.769Z,95.6
2023-03-19T06:53:19.167Z,95.6
2023-03-19T06:54:22.532Z,95.4
2023-03-19T06:55:25.982Z,95.3
2023-03-19T06:56:29.260Z,95.3
2023-03-19T06:57:33.124Z,95.2
2023-03-19T06:58:36.398Z,94.9
2023-03-19T06:59:39.222Z,94.8
2023-03-19T07:00:42.483Z,94.8
2023-03-19T07:01:45.433Z,94.5
2023-03-19T07:02:48.513Z,94.4
2023-03-19T07:03:51.526Z,94.4
2023-03-19T07:04:55.335Z,94.4
2023-03-19T07:05:58.328Z,94.4
2023-03-19T07:07:01.520Z,94.3
2023-03-19T07:08:04.883Z,94.4
2023-03-19T07:09:07.635Z,94.3
2023-03-19T07:10:10.745Z,94.3
2023-03-19T07:11:13.194Z,94.3
2023-03-19T07:12:16.272Z,94.2
2023-03-19T07:13:20.608Z,94
2023-03-19T07:14:23.891Z,93.9
2023-03-19T07:15:26.667Z,93.9
2023-03-19T07:16:30.137Z,93.6
2023-03-19T07:17:33.675Z,93.6
2023-03-19T07:18:36.135Z,93.5
2023-03-19T07:19:39.827Z,93.4
2023-03-19T07:20:42.833Z,93.2
2023-03-19T07:21:45.937Z,93.1
2023-03-19T07:22:49.761Z,93
2023-03-19T07:23:53.037Z,92.8
2023-03-19T07:24:55.803Z,92.9
2023-03-19T07:25:59.336Z,92.7
2023-03-19T07:27:02.699Z,92.5
2023-03-19T07:28:05.931Z,92.4
2023-03-19T07:29:09.828Z,92.1
2023-03-19T07:30:13.253Z,91.9
2023-03-19T07:31:16.685Z,91.8
2023-03-19T07:32:20.216Z,91.6
2023-03-19T07:33:22.849Z,91.3
2023-03-19T07:34:26.499Z,91.3
2023-03-19T07:35:28.930Z,91
2023-03-19T07:36:32.767Z,90.6
2023-03-19T07:37:36.289Z,90.6
2023-03-19T07:38:39.602Z,90.5
2023-03-19T07:39:42.984Z,90.7
2023-03-19T07:41:03.727Z,90.6
2023-03-19T07:42:06.204Z,90.2
2023-03-19T07:43:09.442Z,90.1
2023-03-19T07:44:13.233Z,90.1
2023-03-19T07:45:16.252Z,90
2023-03-19T07:46:19.693Z,90
2023-03-19T07:47:30.869Z,89.9
2023-03-19T07:48:33.862Z,89.9
2023-03-19T07:49:37.159Z,89.7
2023-03-19T07:50:40.165Z,89.2
2023-03-19T07:51:43.260Z,89
2023-03-19T07:52:46.264Z,89.2
2023-03-19T07:53:49.267Z,88.9
2023-03-19T07:54:52.710Z,88.8
2023-03-19T07:55:56.470Z,88.7
2023-03-19T07:56:59.370Z,88.5
2023-03-19T07:58:02.228Z,88.2
2023-03-19T07:59:05.991Z,88
2023-03-19T08:00:10.333Z,87.8
2023-03-19T08:01:13.367Z,87.6
2023-03-19T08:02:16.885Z,87.4
2023-03-19T08:03:20.079Z,87.3
2023-03-19T08:04:23.454Z,87.1
2023-03-19T08:05:25.950Z,87
2023-03-19T08:06:28.938Z,86.5
2023-03-19T08:07:31.754Z,86.4
2023-03-19T08:08:35.068Z,86.1
2023-03-19T08:09:37.829Z,85.7
2023-03-19T08:10:42.211Z,85.7
2023-03-19T08:11:44.970Z,85.6
2023-03-19T08:12:47.766Z,85.7
2023-03-19T08:13:50.683Z,84.7
2023-03-19T08:14:53.875Z,84.5
2023-03-19T08:15:57.456Z,84.3
2023-03-19T08:17:00.950Z,84.1
2023-03-19T08:18:04.357Z,84.2
2023-03-19T08:19:07.587Z,83.4
2023-03-19T08:20:11.040Z,83.1
2023-03-19T08:21:14.053Z,82.8
2023-03-19T08:22:17.740Z,82.5
2023-03-19T08:23:21.030Z,82.3
2023-03-19T08:24:23.567Z,81.8
2023-03-19T08:25:27.302Z,81.5
2023-03-19T08:26:30.276Z,81.6
2023-03-19T08:27:32.998Z,81.4
2023-03-19T08:28:35.831Z,81
2023-03-19T08:29:38.557Z,80.7
2023-03-19T08:30:42.656Z,80
2023-03-19T08:31:46.814Z,79.5
2023-03-19T08:32:50.519Z,79.2
2023-03-19T08:33:53.570Z,79
2023-03-19T08:34:56.347Z,78.5
2023-03-19T08:36:00.283Z,78.2
2023-03-19T08:37:02.937Z,78.7
2023-03-19T08:38:05.986Z,77.8
2023-03-19T08:39:09.283Z,77.3
2023-03-19T08:40:12.573Z,76.9
2023-03-19T08:41:15.669Z,76.4
2023-03-19T08:42:18.657Z,76.4
2023-03-19T08:43:21.743Z,76.2
2023-03-19T08:44:25.186Z,75.9
2023-03-19T08:45:28.089Z,76.7
2023-03-19T08:46:32.109Z,76.1
2023-03-19T08:47:36.303Z,75.5
2023-03-19T08:48:42.630Z,74.8
2023-03-19T08:49:45.173Z,74.8
2023-03-19T08:50:48.168Z,74.9
2023-03-19T08:51:51.548Z,74.8
2023-03-19T08:52:54.229Z,74.7
2023-03-19T08:53:57.231Z,75
2023-03-19T08:54:59.768Z,74.7
2023-03-19T08:56:02.921Z,74.8
2023-03-19T08:57:06.329Z,74.9
2023-03-19T08:58:09.333Z,74.9
2023-03-19T08:59:12.299Z,75.1
2023-03-19T09:00:15.706Z,75.1
2023-03-19T09:01:19.434Z,76.1
2023-03-19T09:02:23.992Z,75.1
2023-03-19T09:03:28.154Z,73.8
2023-03-19T09:04:31.724Z,73.3
2023-03-19T09:05:35.151Z,73.1
2023-03-19T09:06:38.333Z,73.1
2023-03-19T09:07:41.354Z,73.2
2023-03-19T09:08:44.465Z,72.5
2023-03-19T09:09:47.938Z,72
2023-03-19T09:10:53.040Z,71.8
2023-03-19T09:11:56.477Z,71.8
2023-03-19T09:13:00.237Z,71.4
2023-03-19T09:14:03.912Z,71.1
2023-03-19T09:15:07.075Z,70
2023-03-19T09:16:10.695Z,69.3
2023-03-19T09:17:13.656Z,68.8
2023-03-19T09:18:17.684Z,67.9
2023-03-19T09:19:21.467Z,67.9
2023-03-19T09:20:24.452Z,67.4
2023-03-19T09:21:27.698Z,65.9
2023-03-19T09:22:30.778Z,65.9
2023-03-19T09:23:33.776Z,64.8
2023-03-19T09:24:41.487Z,65.4
2023-03-19T09:25:44.858Z,65.3
2023-03-19T09:26:48.242Z,64.3
2023-03-19T09:27:52.066Z,64.3
2023-03-19T09:28:55.002Z,63.6
2023-03-19T09:29:58.494Z,63.1
2023-03-19T09:31:02.127Z,62.5
2023-03-19T09:32:05.577Z,63.2
2023-03-19T09:33:09.856Z,62.1
2023-03-19T09:34:13.551Z,62
2023-03-19T09:35:17.388Z,61.9
2023-03-19T09:36:21.532Z,61.2
2023-03-19T09:37:24.350Z,61.1
2023-03-19T09:38:27.412Z,60.4
2023-03-19T09:39:31.159Z,60.7
2023-03-19T09:40:34.272Z,60.8
2023-03-19T09:41:37.380Z,60.6
2023-03-19T09:42:39.816Z,60.6
2023-03-19T09:43:43.312Z,60.6
2023-03-19T09:44:46.660Z,60
2023-03-19T09:45:49.929Z,60.1
2023-03-19T09:46:53.292Z,60.3
2023-03-19T09:47:56.954Z,59.7
2023-03-19T09:48:59.937Z,59.1
2023-03-19T09:50:03.041Z,58.7
2023-03-19T09:51:06.998Z,58.9
2023-03-19T09:52:11.078Z,58.9
2023-03-19T09:53:14.458Z,59.1
2023-03-19T09:54:17.560Z,59.2
2023-03-19T09:55:20.663Z,59.3
2023-03-19T09:56:23.490Z,58.8
2023-03-19T09:57:26.771Z,58.4
2023-03-19T09:58:30.107Z,59.2
2023-03-19T09:59:33.017Z,59.2
2023-03-19T10:00:36.143Z,58.4
2023-03-19T10:01:39.878Z,58.6
2023-03-19T10:02:42.582Z,58.4
2023-03-19T10:03:45.583Z,58.2
2023-03-19T10:04:49.159Z,58.9
2023-03-19T10:05:51.997Z,56.5
2023-03-19T10:06:56.182Z,56.3
2023-03-19T10:07:59.612Z,56.2
2023-03-19T10:09:02.741Z,56.3
2023-03-19T10:10:06.564Z,55.8
2023-03-19T10:11:09.667Z,56.6
2023-03-19T10:12:12.748Z,56
2023-03-19T10:13:16.097Z,54.8
2023-03-19T10:14:18.903Z,54.6
2023-03-19T10:15:21.372Z,54
2023-03-19T10:16:24.683Z,53.9
2023-03-19T10:17:27.641Z,52.8
2023-03-19T10:18:31.076Z,53.5
2023-03-19T10:19:35.834Z,53.6
2023-03-19T10:20:44.400Z,55
2023-03-19T10:21:48.157Z,54.8
2023-03-19T10:22:52.057Z,55.4
2023-03-19T10:23:54.928Z,54.6
2023-03-19T10:24:58.695Z,54
2023-03-19T10:26:01.592Z,54.4
2023-03-19T10:27:04.050Z,54.9
2023-03-19T10:28:07.518Z,54.5
2023-03-19T10:29:11.054Z,55.6
2023-03-19T10:30:14.844Z,55.1
2023-03-19T10:31:18.424Z,55.3
2023-03-19T10:32:22.202Z,54.2
2023-03-19T10:33:25.382Z,53.7
2023-03-19T10:34:28.831Z,53.3
2023-03-19T10:35:32.627Z,53.5
2023-03-19T10:36:36.690Z,53.4
2023-03-19T10:37:40.731Z,52.7
2023-03-19T10:38:44.657Z,51.8
2023-03-19T10:39:47.790Z,50.3
2023-03-19T10:40:51.043Z,50.2
2023-03-19T10:41:53.372Z,50.1
2023-03-19T10:42:56.535Z,50.2
2023-03-19T10:44:00.266Z,50.1
2023-03-19T10:45:03.723Z,50.6
2023-03-19T10:46:07.743Z,50.6
2023-03-19T10:47:11.670Z,51
2023-03-19T10:48:14.754Z,51.2
2023-03-19T10:49:17.786Z,50.7
2023-03-19T10:50:21.000Z,51
2023-03-19T10:51:24.728Z,51.4
2023-03-19T10:52:27.958Z,52.3
2023-03-19T10:53:31.638Z,52.1
2023-03-19T10:54:35.213Z,51.6
2023-03-19T10:55:38.263Z,51.4
2023-03-19T10:56:41.361Z,51.7
2023-03-19T10:57:44.207Z,52.4
2023-03-19T10:58:47.549Z,52.8
2023-03-19T10:59:49.982Z,53.1
2023-03-19T11:00:53.573Z,53.1
2023-03-19T11:01:56.792Z,53.9
2023-03-19T11:02:59.864Z,53.9
2023-03-19T11:04:03.672Z,53.8
2023-03-19T11:05:07.266Z,53.3
2023-03-19T11:06:10.388Z,53.6
2023-03-19T11:07:13.112Z,53.3
2023-03-19T11:08:36.528Z,54
2023-03-19T11:09:40.944Z,53.5
2023-03-19T11:10:44.042Z,53.6
2023-03-19T11:11:51.509Z,53.7
2023-03-19T11:12:54.900Z,54.1
2023-03-19T11:13:58.547Z,55.3
2023-03-19T11:15:01.895Z,54.3
2023-03-19T11:16:04.912Z,53.4
2023-03-19T11:17:08.689Z,53.1
2023-03-19T11:18:12.437Z,51.6
2023-03-19T11:19:15.502Z,51.7
2023-03-19T11:20:19.671Z,51.6
2023-03-19T11:21:23.068Z,51.4
2023-03-19T11:22:26.275Z,50.7
2023-03-19T11:23:30.162Z,50.4
2023-03-19T11:24:33.952Z,50.8
2023-03-19T11:25:38.428Z,51
2023-03-19T11:26:41.693Z,51.3
2023-03-19T11:27:44.727Z,51.6
2023-03-19T11:28:47.452Z,52
2023-03-19T11:29:50.177Z,52.5
2023-03-19T11:30:53.330Z,52.6
2023-03-19T11:31:56.386Z,52
2023-03-19T11:33:00.025Z,52.3
2023-03-19T11:34:03.228Z,53
2023-03-19T11:35:06.186Z,53.4
2023-03-19T11:36:09.578Z,53.8
2023-03-19T11:37:13.079Z,53.7
2023-03-19T11:38:16.526Z,53.6
2023-03-19T11:39:19.548Z,53.5
2023-03-19T11:40:26.057Z,52.5
2023-03-19T11:41:30.239Z,52.1
2023-03-19T11:42:32.951Z,52.4
2023-03-19T11:43:36.633Z,51.9
2023-03-19T11:44:39.905Z,50.6
2023-03-19T11:45:43.955Z,50.5
2023-03-19T11:46:47.346Z,50.4
2023-03-19T11:47:50.753Z,50.1
2023-03-19T11:48:53.775Z,50.3
2023-03-19T11:49:56.695Z,50.7
2023-03-19T11:50:59.238Z,50.8
2023-03-19T11:52:02.614Z,50.7
2023-03-19T11:53:06.411Z,50.7
2023-03-19T11:54:09.589Z,50
2023-03-19T11:55:12.749Z,49.2
2023-03-19T11:56:16.558Z,48.5
2023-03-19T11:57:20.400Z,48
2023-03-19T11:58:23.206Z,48
2023-03-19T11:59:26.214Z,47.9
2023-03-19T12:00:29.676Z,47.5
2023-03-19T12:01:32.781Z,46.2
2023-03-19T12:02:36.589Z,44.9
2023-03-19T12:03:40.773Z,44.3
2023-03-19T12:04:43.712Z,43.7
2023-03-19T12:05:46.785Z,44.3
2023-03-19T12:06:49.648Z,44.5
2023-03-19T12:07:52.736Z,44.8
2023-03-19T12:08:56.204Z,44.2
2023-03-19T12:09:59.648Z,44.2
2023-03-19T12:11:03.086Z,44.8
2023-03-19T12:12:06.070Z,45.2
2023-03-19T12:13:10.648Z,45.5
2023-03-19T12:14:14.914Z,44.8
2023-03-19T12:15:18.011Z,43.8
2023-03-19T12:16:21.053Z,44.5
2023-03-19T12:17:24.760Z,45
2023-03-19T12:18:27.577Z,45.4
2023-03-19T12:19:30.931Z,46
2023-03-19T12:20:33.653Z,46.2
2023-03-19T12:21:37.147Z,46.5
2023-03-19T12:22:39.865Z,47
2023-03-19T12:23:43.149Z,47
2023-03-19T12:24:47.002Z,47.3
2023-03-19T12:25:50.814Z,47.6
2023-03-19T12:26:54.430Z,46.9
2023-03-19T12:27:57.562Z,47.1
2023-03-19T12:29:04.712Z,47.5
2023-03-19T12:30:08.151Z,46.6
2023-03-19T12:31:11.392Z,46.8
2023-03-19T12:32:15.060Z,46.4
2023-03-19T12:33:18.525Z,46.9
2023-03-19T12:34:21.910Z,46.7
2023-03-19T12:35:24.917Z,46.7
2023-03-19T12:36:28.194Z,46.4
2023-03-19T12:37:31.539Z,46.3
2023-03-19T12:38:34.921Z,46.3
2023-03-19T12:39:38.615Z,46.1
2023-03-19T12:40:41.609Z,45.4
2023-03-19T12:41:44.422Z,44.4
2023-03-19T12:42:47.314Z,44.3
2023-03-19T12:43:50.355Z,44.4
2023-03-19T12:44:54.529Z,44.4
2023-03-19T12:45:59.369Z,44.8
2023-03-19T12:47:03.021Z,44.9
2023-03-19T12:48:06.518Z,45.3
2023-03-19T12:49:09.600Z,45.3
2023-03-19T12:50:12.896Z,45.1
2023-03-19T12:51:16.111Z,45.1
2023-03-19T12:52:19.023Z,44.6
2023-03-19T12:53:22.288Z,45
2023-03-19T12:54:25.577Z,44.8
2023-03-19T12:55:28.287Z,44.8
2023-03-19T12:56:31.195Z,43.7
2023-03-19T12:57:34.306Z,43.8
2023-03-19T12:58:37.059Z,43.9
2023-03-19T12:59:40.731Z,44.3
2023-03-19T13:00:44.974Z,44.3
2023-03-19T13:01:49.433Z,44.4
2023-03-19T13:02:53.023Z,44.4
2023-03-19T13:03:56.998Z,45
2023-03-19T13:05:00.487Z,45.1
2023-03-19T13:06:04.073Z,45.4
2023-03-19T13:07:07.129Z,45.8
2023-03-19T13:08:10.919Z,46.1
2023-03-19T13:09:15.698Z,46.2
2023-03-19T13:10:19.358Z,46.3
2023-03-19T13:11:22.232Z,46.5
2023-03-19T13:12:25.524Z,45.8
2023-03-19T13:13:28.654Z,45.9
2023-03-19T13:14:31.720Z,46
2023-03-19T13:15:35.240Z,46.3
2023-03-19T13:16:39.504Z,46
2023-03-19T13:17:42.603Z,46.5
2023-03-19T13:18:45.351Z,46.4
2023-03-19T13:19:47.875Z,46.7
2023-03-19T13:20:51.136Z,46.7
2023-03-19T13:21:54.226Z,46.8
2023-03-19T13:22:57.070Z,46.3
2023-03-19T13:24:01.018Z,45.7
2023-03-19T13:25:04.089Z,45
2023-03-19T13:26:07.876Z,45.1
2023-03-19T13:27:10.654Z,45.6
2023-03-19T13:28:13.511Z,44.7
2023-03-19T13:29:17.226Z,44.5
2023-03-19T13:30:21.295Z,45
2023-03-19T13:31:25.030Z,45.1
2023-03-19T13:32:29.342Z,45.2
2023-03-19T13:33:32.043Z,45.9
2023-03-19T13:34:34.833Z,45.5
2023-03-19T13:35:38.447Z,44.8
2023-03-19T13:36:41.204Z,45.8
2023-03-19T13:37:44.379Z,45.8
2023-03-19T13:38:47.791Z,46.9
2023-03-19T13:39:51.088Z,47.1
2023-03-19T13:40:53.965Z,47.9
2023-03-19T13:41:57.109Z,48.4
2023-03-19T13:43:00.126Z,48.7
2023-03-19T13:44:03.113Z,48.8
2023-03-19T13:45:06.397Z,49
2023-03-19T13:46:09.480Z,49
2023-03-19T13:47:13.145Z,49.1
2023-03-19T13:48:26.130Z,49.1
2023-03-19T13:49:28.903Z,49.1
2023-03-19T13:50:32.571Z,49.4
2023-03-19T13:51:36.512Z,49.1
2023-03-19T13:52:39.948Z,49.2
2023-03-19T13:53:43.281Z,49.4
2023-03-19T13:54:46.312Z,49.6
2023-03-19T13:55:49.178Z,49.9
2023-03-19T13:56:52.323Z,49.9
2023-03-19T13:57:56.077Z,49.7
2023-03-19T13:58:58.880Z,49.4
2023-03-19T14:00:02.404Z,49.5
2023-03-19T14:01:06.348Z,49.3
2023-03-19T14:02:09.887Z,49.4
2023-03-19T14:03:13.652Z,49
2023-03-19T14:04:21.129Z,48.9
2023-03-19T14:05:24.579Z,49.2
2023-03-19T14:06:28.134Z,49.6
2023-03-19T14:07:30.626Z,49.6
2023-03-19T14:08:33.700Z,49.6
2023-03-19T14:09:36.219Z,49.8